sensor_id;sensor_type;location;lat;lon;timestamp;temperature;humidity
54540;SHT30;40438;52.992;18.604;2023-05-10T00:00:07;10.69;50.25
54540;SHT30;40438;52.992;18.604;2023-05-10T00:02:38;10.68;50.30
54540;SHT30;40438;52.992;18.604;2023-05-10T00:05:05;10.61;50.63
54540;SHT30;40438;52.992;18.604;2023-05-10T00:07:32;10.61;50.53
54540;SHT30;40438;52.992;18.604;2023-05-10T00:09:58;10.61;50.57
54540;SHT30;40438;52.992;18.604;2023-05-10T00:12:24;10.60;50.57
54540;SHT30;40438;52.992;18.604;2023-05-10T00:14:50;10.64;50.46
54540;SHT30;40438;52.992;18.604;2023-05-10T00:17:15;10.60;50.55
54540;SHT30;40438;52.992;18.604;2023-05-10T00:19:41;10.61;50.44
54540;SHT30;40438;52.992;18.604;2023-05-10T00:22:07;10.57;50.68
54540;SHT30;40438;52.992;18.604;2023-05-10T00:24:34;10.51;50.80
54540;SHT30;40438;52.992;18.604;2023-05-10T00:27:00;10.49;50.81
54540;SHT30;40438;52.992;18.604;2023-05-10T00:29:26;10.51;50.76
54540;SHT30;40438;52.992;18.604;2023-05-10T00:31:52;10.45;51.04
54540;SHT30;40438;52.992;18.604;2023-05-10T00:34:18;10.42;51.06
54540;SHT30;40438;52.992;18.604;2023-05-10T00:36:44;10.41;51.13
54540;SHT30;40438;52.992;18.604;2023-05-10T00:39:09;10.37;51.20
54540;SHT30;40438;52.992;18.604;2023-05-10T00:41:38;10.37;51.39
54540;SHT30;40438;52.992;18.604;2023-05-10T00:44:06;10.34;51.24
54540;SHT30;40438;52.992;18.604;2023-05-10T00:46:32;10.34;51.21
54540;SHT30;40438;52.992;18.604;2023-05-10T00:48:58;10.27;51.49
54540;SHT30;40438;52.992;18.604;2023-05-10T00:51:24;10.27;51.59
54540;SHT30;40438;52.992;18.604;2023-05-10T00:53:50;10.21;51.50
54540;SHT30;40438;52.992;18.604;2023-05-10T00:56:16;10.18;51.70
54540;SHT30;40438;52.992;18.604;2023-05-10T00:58:44;10.16;51.65
54540;SHT30;40438;52.992;18.604;2023-05-10T01:01:10;10.09;51.75
54540;SHT30;40438;52.992;18.604;2023-05-10T01:03:36;10.12;51.80
54540;SHT30;40438;52.992;18.604;2023-05-10T01:06:02;10.12;51.81
54540;SHT30;40438;52.992;18.604;2023-05-10T01:08:28;10.13;51.68
54540;SHT30;40438;52.992;18.604;2023-05-10T01:10:55;10.12;51.52
54540;SHT30;40438;52.992;18.604;2023-05-10T01:13:30;10.12;51.54
54540;SHT30;40438;52.992;18.604;2023-05-10T01:16:00;10.07;51.77
54540;SHT30;40438;52.992;18.604;2023-05-10T01:18:26;10.00;51.94
54540;SHT30;40438;52.992;18.604;2023-05-10T01:21:00;9.96;51.98
54540;SHT30;40438;52.992;18.604;2023-05-10T01:24:06;9.96;52.09
54540;SHT30;40438;52.992;18.604;2023-05-10T01:30:05;9.89;52.16
54540;SHT30;40438;52.992;18.604;2023-05-10T01:32:41;9.82;52.39
54540;SHT30;40438;52.992;18.604;2023-05-10T01:35:12;9.83;52.45
54540;SHT30;40438;52.992;18.604;2023-05-10T01:37:42;9.85;52.29
54540;SHT30;40438;52.992;18.604;2023-05-10T01:40:17;9.82;52.41
54540;SHT30;40438;52.992;18.604;2023-05-10T01:42:50;9.75;52.63
54540;SHT30;40438;52.992;18.604;2023-05-10T01:45:24;9.73;52.69
54540;SHT30;40438;52.992;18.604;2023-05-10T01:47:57;9.70;52.74
54540;SHT30;40438;52.992;18.604;2023-05-10T01:50:27;9.72;52.80
54540;SHT30;40438;52.992;18.604;2023-05-10T01:52:55;9.66;52.98
54540;SHT30;40438;52.992;18.604;2023-05-10T01:55:25;9.61;53.02
54540;SHT30;40438;52.992;18.604;2023-05-10T01:57:58;9.59;53.08
54540;SHT30;40438;52.992;18.604;2023-05-10T02:00:26;9.58;53.08
54540;SHT30;40438;52.992;18.604;2023-05-10T02:02:54;9.58;53.21
54540;SHT30;40438;52.992;18.604;2023-05-10T02:05:21;9.55;53.41
54540;SHT30;40438;52.992;18.604;2023-05-10T02:07:49;9.55;53.38
54540;SHT30;40438;52.992;18.604;2023-05-10T02:10:17;9.52;53.58
54540;SHT30;40438;52.992;18.604;2023-05-10T02:12:46;9.51;53.52
54540;SHT30;40438;52.992;18.604;2023-05-10T02:15:15;9.49;53.42
54540;SHT30;40438;52.992;18.604;2023-05-10T02:17:43;9.49;53.56
54540;SHT30;40438;52.992;18.604;2023-05-10T02:20:13;9.46;53.51
54540;SHT30;40438;52.992;18.604;2023-05-10T02:22:41;9.45;53.76
54540;SHT30;40438;52.992;18.604;2023-05-10T02:25:08;9.38;53.90
54540;SHT30;40438;52.992;18.604;2023-05-10T02:27:35;9.35;53.98
54540;SHT30;40438;52.992;18.604;2023-05-10T02:30:02;9.32;54.08
54540;SHT30;40438;52.992;18.604;2023-05-10T02:32:28;9.32;54.06
54540;SHT30;40438;52.992;18.604;2023-05-10T02:34:56;9.27;54.17
54540;SHT30;40438;52.992;18.604;2023-05-10T02:37:25;9.28;54.09
54540;SHT30;40438;52.992;18.604;2023-05-10T02:39:54;9.18;54.42
54540;SHT30;40438;52.992;18.604;2023-05-10T02:42:24;9.13;54.53
54540;SHT30;40438;52.992;18.604;2023-05-10T02:44:53;9.10;54.55
54540;SHT30;40438;52.992;18.604;2023-05-10T02:47:19;9.10;54.60
54540;SHT30;40438;52.992;18.604;2023-05-10T02:49:45;9.00;54.77
54540;SHT30;40438;52.992;18.604;2023-05-10T02:52:16;9.00;54.81
54540;SHT30;40438;52.992;18.604;2023-05-10T02:54:49;8.96;54.96
54540;SHT30;40438;52.992;18.604;2023-05-10T02:57:16;8.89;55.09
54540;SHT30;40438;52.992;18.604;2023-05-10T02:59:42;8.93;55.08
54540;SHT30;40438;52.992;18.604;2023-05-10T03:02:09;8.99;54.82
54540;SHT30;40438;52.992;18.604;2023-05-10T03:04:35;8.97;54.95
54540;SHT30;40438;52.992;18.604;2023-05-10T03:07:02;8.93;55.06
54540;SHT30;40438;52.992;18.604;2023-05-10T03:09:28;8.92;55.09
54540;SHT30;40438;52.992;18.604;2023-05-10T03:12:00;8.90;55.07
54540;SHT30;40438;52.992;18.604;2023-05-10T03:14:36;8.87;55.17
54540;SHT30;40438;52.992;18.604;2023-05-10T03:17:09;8.80;55.31
54540;SHT30;40438;52.992;18.604;2023-05-10T03:19:40;8.80;55.49
54540;SHT30;40438;52.992;18.604;2023-05-10T03:22:10;8.86;55.31
54540;SHT30;40438;52.992;18.604;2023-05-10T03:24:39;8.87;55.30
54540;SHT30;40438;52.992;18.604;2023-05-10T03:27:08;8.83;55.47
54540;SHT30;40438;52.992;18.604;2023-05-10T03:29:34;8.81;55.61
54540;SHT30;40438;52.992;18.604;2023-05-10T03:32:01;8.83;55.51
54540;SHT30;40438;52.992;18.604;2023-05-10T03:34:30;8.81;55.61
54540;SHT30;40438;52.992;18.604;2023-05-10T03:36:56;8.79;55.65
54540;SHT30;40438;52.992;18.604;2023-05-10T03:39:23;8.80;55.52
54540;SHT30;40438;52.992;18.604;2023-05-10T03:41:53;8.81;55.58
54540;SHT30;40438;52.992;18.604;2023-05-10T03:44:21;8.83;55.51
54540;SHT30;40438;52.992;18.604;2023-05-10T03:46:46;8.83;55.63
54540;SHT30;40438;52.992;18.604;2023-05-10T03:49:12;8.85;55.56
54540;SHT30;40438;52.992;18.604;2023-05-10T03:51:38;8.85;55.82
54540;SHT30;40438;52.992;18.604;2023-05-10T03:54:04;8.93;55.40
54540;SHT30;40438;52.992;18.604;2023-05-10T03:56:30;8.94;55.52
54540;SHT30;40438;52.992;18.604;2023-05-10T03:58:56;8.96;55.36
54540;SHT30;40438;52.992;18.604;2023-05-10T04:01:24;9.01;55.17
54540;SHT30;40438;52.992;18.604;2023-05-10T04:03:50;9.07;55.29
54540;SHT30;40438;52.992;18.604;2023-05-10T04:06:15;9.10;55.20
54540;SHT30;40438;52.992;18.604;2023-05-10T04:08:41;9.16;55.20
54540;SHT30;40438;52.992;18.604;2023-05-10T04:11:08;9.21;55.12
54540;SHT30;40438;52.992;18.604;2023-05-10T04:13:36;9.23;55.07
54540;SHT30;40438;52.992;18.604;2023-05-10T04:16:02;9.27;55.12
54540;SHT30;40438;52.992;18.604;2023-05-10T04:18:29;9.31;55.01
54540;SHT30;40438;52.992;18.604;2023-05-10T04:20:55;9.32;55.05
54540;SHT30;40438;52.992;18.604;2023-05-10T04:23:21;9.34;55.09
54540;SHT30;40438;52.992;18.604;2023-05-10T04:25:46;9.37;55.03
54540;SHT30;40438;52.992;18.604;2023-05-10T04:28:12;9.42;54.92
54540;SHT30;40438;52.992;18.604;2023-05-10T04:30:38;9.41;54.95
54540;SHT30;40438;52.992;18.604;2023-05-10T04:33:04;9.45;54.81
54540;SHT30;40438;52.992;18.604;2023-05-10T04:35:31;9.52;54.47
54540;SHT30;40438;52.992;18.604;2023-05-10T04:37:57;9.56;54.48
54540;SHT30;40438;52.992;18.604;2023-05-10T04:40:23;9.67;54.20
54540;SHT30;40438;52.992;18.604;2023-05-10T04:42:48;9.70;54.20
54540;SHT30;40438;52.992;18.604;2023-05-10T04:45:14;9.75;54.31
54540;SHT30;40438;52.992;18.604;2023-05-10T04:47:40;9.75;54.10
54540;SHT30;40438;52.992;18.604;2023-05-10T04:50:07;9.85;53.81
54540;SHT30;40438;52.992;18.604;2023-05-10T04:52:34;9.90;53.84
54540;SHT30;40438;52.992;18.604;2023-05-10T04:55:00;9.96;53.91
54540;SHT30;40438;52.992;18.604;2023-05-10T04:57:26;10.10;53.29
54540;SHT30;40438;52.992;18.604;2023-05-10T04:59:51;10.12;53.59
54540;SHT30;40438;52.992;18.604;2023-05-10T05:02:17;10.21;53.47
54540;SHT30;40438;52.992;18.604;2023-05-10T05:04:43;10.28;52.95
54540;SHT30;40438;52.992;18.604;2023-05-10T05:07:09;10.38;52.51
54540;SHT30;40438;52.992;18.604;2023-05-10T05:09:36;10.42;52.71
54540;SHT30;40438;52.992;18.604;2023-05-10T05:12:02;10.48;52.62
54540;SHT30;40438;52.992;18.604;2023-05-10T05:14:28;10.51;52.69
54540;SHT30;40438;52.992;18.604;2023-05-10T05:16:53;10.61;52.30
54540;SHT30;40438;52.992;18.604;2023-05-10T05:19:19;10.71;52.42
54540;SHT30;40438;52.992;18.604;2023-05-10T05:21:45;10.76;51.53
54540;SHT30;40438;52.992;18.604;2023-05-10T05:24:11;10.82;51.89
54540;SHT30;40438;52.992;18.604;2023-05-10T05:26:38;10.95;51.38
54540;SHT30;40438;52.992;18.604;2023-05-10T05:29:04;10.99;51.49
54540;SHT30;40438;52.992;18.604;2023-05-10T05:31:30;11.10;51.24
54540;SHT30;40438;52.992;18.604;2023-05-10T05:33:56;11.19;50.41
54540;SHT30;40438;52.992;18.604;2023-05-10T05:36:21;11.30;50.19
54540;SHT30;40438;52.992;18.604;2023-05-10T05:38:47;11.36;50.38
54540;SHT30;40438;52.992;18.604;2023-05-10T05:41:13;11.40;49.41
54540;SHT30;40438;52.992;18.604;2023-05-10T05:43:40;11.51;48.83
54540;SHT30;40438;52.992;18.604;2023-05-10T05:46:06;11.63;48.67
54540;SHT30;40438;52.992;18.604;2023-05-10T05:48:32;11.67;48.92
54540;SHT30;40438;52.992;18.604;2023-05-10T05:50:58;11.74;48.15
54540;SHT30;40438;52.992;18.604;2023-05-10T05:53:24;11.78;48.59
54540;SHT30;40438;52.992;18.604;2023-05-10T05:55:53;11.92;47.78
54540;SHT30;40438;52.992;18.604;2023-05-10T05:58:18;12.02;47.39
54540;SHT30;40438;52.992;18.604;2023-05-10T06:00:46;12.11;46.74
54540;SHT30;40438;52.992;18.604;2023-05-10T06:03:12;12.16;46.87
54540;SHT30;40438;52.992;18.604;2023-05-10T06:05:37;12.21;46.29
54540;SHT30;40438;52.992;18.604;2023-05-10T06:08:03;12.25;46.80
54540;SHT30;40438;52.992;18.604;2023-05-10T06:10:29;12.28;46.71
54540;SHT30;40438;52.992;18.604;2023-05-10T06:12:55;12.34;46.07
54540;SHT30;40438;52.992;18.604;2023-05-10T06:15:21;12.39;45.32
54540;SHT30;40438;52.992;18.604;2023-05-10T06:17:48;12.52;45.63
54540;SHT30;40438;52.992;18.604;2023-05-10T06:20:14;12.60;45.95
54540;SHT30;40438;52.992;18.604;2023-05-10T06:22:40;12.74;44.99
54540;SHT30;40438;52.992;18.604;2023-05-10T06:25:07;12.78;44.35
54540;SHT30;40438;52.992;18.604;2023-05-10T06:27:33;12.87;43.69
54540;SHT30;40438;52.992;18.604;2023-05-10T06:29:59;12.91;44.64
54540;SHT30;40438;52.992;18.604;2023-05-10T06:32:25;13.00;43.95
54540;SHT30;40438;52.992;18.604;2023-05-10T06:34:52;13.11;44.66
54540;SHT30;40438;52.992;18.604;2023-05-10T06:37:18;13.16;43.75
54540;SHT30;40438;52.992;18.604;2023-05-10T06:39:43;13.28;41.46
54540;SHT30;40438;52.992;18.604;2023-05-10T06:42:09;13.28;41.19
54540;SHT30;40438;52.992;18.604;2023-05-10T06:44:35;13.32;41.61
54540;SHT30;40438;52.992;18.604;2023-05-10T06:47:01;13.32;41.36
54540;SHT30;40438;52.992;18.604;2023-05-10T06:49:26;13.42;41.54
54540;SHT30;40438;52.992;18.604;2023-05-10T06:51:55;13.56;40.82
54540;SHT30;40438;52.992;18.604;2023-05-10T06:54:21;13.57;41.60
54540;SHT30;40438;52.992;18.604;2023-05-10T06:56:46;13.63;42.68
54540;SHT30;40438;52.992;18.604;2023-05-10T06:59:12;13.74;41.17
54540;SHT30;40438;52.992;18.604;2023-05-10T07:01:38;13.81;41.60
54540;SHT30;40438;52.992;18.604;2023-05-10T07:04:04;13.90;41.31
54540;SHT30;40438;52.992;18.604;2023-05-10T07:06:29;14.01;41.37
54540;SHT30;40438;52.992;18.604;2023-05-10T07:08:57;14.08;40.34
54540;SHT30;40438;52.992;18.604;2023-05-10T07:11:22;14.21;40.29
54540;SHT30;40438;52.992;18.604;2023-05-10T07:13:48;14.29;40.09
54540;SHT30;40438;52.992;18.604;2023-05-10T07:16:15;14.35;39.44
54540;SHT30;40438;52.992;18.604;2023-05-10T07:18:41;14.38;39.76
54540;SHT30;40438;52.992;18.604;2023-05-10T07:21:07;14.43;39.97
54540;SHT30;40438;52.992;18.604;2023-05-10T07:23:32;14.48;39.52
54540;SHT30;40438;52.992;18.604;2023-05-10T07:25:59;14.51;38.92
54540;SHT30;40438;52.992;18.604;2023-05-10T07:28:25;14.60;38.86
54540;SHT30;40438;52.992;18.604;2023-05-10T07:30:51;14.60;39.10
54540;SHT30;40438;52.992;18.604;2023-05-10T07:33:17;14.65;39.31
54540;SHT30;40438;52.992;18.604;2023-05-10T07:35:43;14.72;39.19
54540;SHT30;40438;52.992;18.604;2023-05-10T07:38:08;14.80;39.24
54540;SHT30;40438;52.992;18.604;2023-05-10T07:40:34;14.91;39.58
54540;SHT30;40438;52.992;18.604;2023-05-10T07:43:01;14.97;38.54
54540;SHT30;40438;52.992;18.604;2023-05-10T07:45:27;15.04;38.80
54540;SHT30;40438;52.992;18.604;2023-05-10T07:47:53;15.12;38.32
54540;SHT30;40438;52.992;18.604;2023-05-10T07:50:19;15.17;38.07
54540;SHT30;40438;52.992;18.604;2023-05-10T07:52:45;15.18;37.80
54540;SHT30;40438;52.992;18.604;2023-05-10T07:55:11;15.32;37.48
54540;SHT30;40438;52.992;18.604;2023-05-10T07:57:37;15.34;37.18
54540;SHT30;40438;52.992;18.604;2023-05-10T08:00:06;15.47;36.90
54540;SHT30;40438;52.992;18.604;2023-05-10T08:02:38;15.48;36.88
54540;SHT30;40438;52.992;18.604;2023-05-10T08:05:05;15.48;37.83
54540;SHT30;40438;52.992;18.604;2023-05-10T08:07:31;15.51;37.57
54540;SHT30;40438;52.992;18.604;2023-05-10T08:12:22;15.69;36.52
54540;SHT30;40438;52.992;18.604;2023-05-10T08:14:48;15.63;37.02
54540;SHT30;40438;52.992;18.604;2023-05-10T08:17:15;15.78;37.56
54540;SHT30;40438;52.992;18.604;2023-05-10T08:19:41;15.86;37.09
54540;SHT30;40438;52.992;18.604;2023-05-10T08:22:06;15.99;36.48
54540;SHT30;40438;52.992;18.604;2023-05-10T08:24:32;16.13;36.58
54540;SHT30;40438;52.992;18.604;2023-05-10T08:26:58;16.26;35.95
54540;SHT30;40438;52.992;18.604;2023-05-10T08:29:24;16.26;34.86
54540;SHT30;40438;52.992;18.604;2023-05-10T08:31:49;16.18;34.86
54540;SHT30;40438;52.992;18.604;2023-05-10T08:34:17;16.20;34.86
54540;SHT30;40438;52.992;18.604;2023-05-10T08:36:42;16.24;35.01
54540;SHT30;40438;52.992;18.604;2023-05-10T08:39:08;16.34;35.26
54540;SHT30;40438;52.992;18.604;2023-05-10T08:41:35;16.36;35.23
54540;SHT30;40438;52.992;18.604;2023-05-10T08:44:04;16.45;35.56
54540;SHT30;40438;52.992;18.604;2023-05-10T08:46:30;16.57;35.67
54540;SHT30;40438;52.992;18.604;2023-05-10T08:49:01;16.69;34.89
54540;SHT30;40438;52.992;18.604;2023-05-10T08:51:34;16.73;35.66
54540;SHT30;40438;52.992;18.604;2023-05-10T08:54:01;16.82;35.78
54540;SHT30;40438;52.992;18.604;2023-05-10T08:56:27;16.98;35.67
54540;SHT30;40438;52.992;18.604;2023-05-10T08:58:53;17.07;34.00
54540;SHT30;40438;52.992;18.604;2023-05-10T09:01:19;16.99;33.96
54540;SHT30;40438;52.992;18.604;2023-05-10T09:03:46;16.91;34.79
54540;SHT30;40438;52.992;18.604;2023-05-10T09:06:12;17.00;34.83
54540;SHT30;40438;52.992;18.604;2023-05-10T09:08:40;17.07;34.97
54540;SHT30;40438;52.992;18.604;2023-05-10T09:11:06;17.07;34.32
54540;SHT30;40438;52.992;18.604;2023-05-10T09:13:33;17.16;35.21
54540;SHT30;40438;52.992;18.604;2023-05-10T09:15:59;17.27;34.24
54540;SHT30;40438;52.992;18.604;2023-05-10T09:18:26;17.44;34.46
54540;SHT30;40438;52.992;18.604;2023-05-10T09:20:51;17.38;33.96
54540;SHT30;40438;52.992;18.604;2023-05-10T09:23:17;17.51;33.72
54540;SHT30;40438;52.992;18.604;2023-05-10T09:25:44;17.53;34.05
54540;SHT30;40438;52.992;18.604;2023-05-10T09:28:11;17.61;34.21
54540;SHT30;40438;52.992;18.604;2023-05-10T09:30:37;17.81;34.12
54540;SHT30;40438;52.992;18.604;2023-05-10T09:33:03;17.96;34.28
54540;SHT30;40438;52.992;18.604;2023-05-10T09:35:30;18.19;32.87
54540;SHT30;40438;52.992;18.604;2023-05-10T09:37:57;18.29;32.81
54540;SHT30;40438;52.992;18.604;2023-05-10T09:40:24;18.43;32.56
54540;SHT30;40438;52.992;18.604;2023-05-10T09:42:53;18.63;31.08
54540;SHT30;40438;52.992;18.604;2023-05-10T09:45:20;18.71;31.34
54540;SHT30;40438;52.992;18.604;2023-05-10T09:47:46;18.95;31.76
54540;SHT30;40438;52.992;18.604;2023-05-10T09:50:12;19.35;31.66
54540;SHT30;40438;52.992;18.604;2023-05-10T09:52:46;19.56;30.47
54540;SHT30;40438;52.992;18.604;2023-05-10T09:55:13;19.70;30.38
54540;SHT30;40438;52.992;18.604;2023-05-10T09:57:38;19.71;30.37
54540;SHT30;40438;52.992;18.604;2023-05-10T10:00:07;19.91;30.16
54540;SHT30;40438;52.992;18.604;2023-05-10T10:02:39;20.22;30.38
54540;SHT30;40438;52.992;18.604;2023-05-10T10:07:32;20.38;30.37
54540;SHT30;40438;52.992;18.604;2023-05-10T10:09:58;20.60;29.00
54540;SHT30;40438;52.992;18.604;2023-05-10T10:12:25;20.46;29.42
54540;SHT30;40438;52.992;18.604;2023-05-10T10:14:50;20.45;29.44
54540;SHT30;40438;52.992;18.604;2023-05-10T10:17:19;20.45;29.24
54540;SHT30;40438;52.992;18.604;2023-05-10T10:19:45;20.36;29.36
54540;SHT30;40438;52.992;18.604;2023-05-10T10:22:11;20.46;29.42
54540;SHT30;40438;52.992;18.604;2023-05-10T10:24:37;20.46;29.83
54540;SHT30;40438;52.992;18.604;2023-05-10T10:27:11;20.56;30.26
54540;SHT30;40438;52.992;18.604;2023-05-10T10:29:45;20.21;29.28
54540;SHT30;40438;52.992;18.604;2023-05-10T10:32:21;20.11;29.80
54540;SHT30;40438;52.992;18.604;2023-05-10T10:34:48;20.24;29.53
54540;SHT30;40438;52.992;18.604;2023-05-10T10:37:14;20.20;29.99
54540;SHT30;40438;52.992;18.604;2023-05-10T10:39:40;20.38;29.18
54540;SHT30;40438;52.992;18.604;2023-05-10T10:42:06;20.59;28.52
54540;SHT30;40438;52.992;18.604;2023-05-10T10:44:38;20.59;29.18
54540;SHT30;40438;52.992;18.604;2023-05-10T10:47:06;20.63;29.00
54540;SHT30;40438;52.992;18.604;2023-05-10T10:49:37;20.41;29.47
54540;SHT30;40438;52.992;18.604;2023-05-10T10:52:20;20.31;29.50
54540;SHT30;40438;52.992;18.604;2023-05-10T10:54:50;20.21;29.06
54540;SHT30;40438;52.992;18.604;2023-05-10T10:57:18;19.97;28.71
54540;SHT30;40438;52.992;18.604;2023-05-10T10:59:44;19.97;29.44
54540;SHT30;40438;52.992;18.604;2023-05-10T11:02:10;20.08;29.91
54540;SHT30;40438;52.992;18.604;2023-05-10T11:04:57;20.20;29.17
54540;SHT30;40438;52.992;18.604;2023-05-10T11:07:23;20.18;29.45
54540;SHT30;40438;52.992;18.604;2023-05-10T11:09:49;20.31;29.23
54540;SHT30;40438;52.992;18.604;2023-05-10T11:12:15;20.52;28.64
54540;SHT30;40438;52.992;18.604;2023-05-10T11:14:40;20.53;28.11
54540;SHT30;40438;52.992;18.604;2023-05-10T11:17:24;20.60;28.46
54540;SHT30;40438;52.992;18.604;2023-05-10T11:20:06;20.59;28.61
54540;SHT30;40438;52.992;18.604;2023-05-10T11:22:49;20.75;29.17
54540;SHT30;40438;52.992;18.604;2023-05-10T11:25:14;21.06;28.79
54540;SHT30;40438;52.992;18.604;2023-05-10T11:27:41;20.93;27.83
54540;SHT30;40438;52.992;18.604;2023-05-10T11:30:08;21.04;28.00
54540;SHT30;40438;52.992;18.604;2023-05-10T11:32:36;21.20;28.15
54540;SHT30;40438;52.992;18.604;2023-05-10T11:35:08;21.24;28.19
54540;SHT30;40438;52.992;18.604;2023-05-10T11:37:34;21.35;27.91
54540;SHT30;40438;52.992;18.604;2023-05-10T11:40:00;21.41;28.17
54540;SHT30;40438;52.992;18.604;2023-05-10T11:42:27;21.58;28.44
54540;SHT30;40438;52.992;18.604;2023-05-10T11:44:53;21.58;27.60
54540;SHT30;40438;52.992;18.604;2023-05-10T11:47:19;21.63;27.58
54540;SHT30;40438;52.992;18.604;2023-05-10T11:49:45;21.85;27.14
54540;SHT30;40438;52.992;18.604;2023-05-10T11:52:12;21.95;27.20
54540;SHT30;40438;52.992;18.604;2023-05-10T11:54:44;21.79;27.06
54540;SHT30;40438;52.992;18.604;2023-05-10T11:57:10;21.62;27.70
54540;SHT30;40438;52.992;18.604;2023-05-10T11:59:36;21.62;27.34
54540;SHT30;40438;52.992;18.604;2023-05-10T12:02:02;21.80;27.41
54540;SHT30;40438;52.992;18.604;2023-05-10T12:04:28;21.93;26.75
54540;SHT30;40438;52.992;18.604;2023-05-10T12:06:54;22.08;27.12
54540;SHT30;40438;52.992;18.604;2023-05-10T12:09:21;22.21;26.79
54540;SHT30;40438;52.992;18.604;2023-05-10T12:11:47;22.31;26.86
54540;SHT30;40438;52.992;18.604;2023-05-10T12:14:13;21.98;26.34
54540;SHT30;40438;52.992;18.604;2023-05-10T12:16:38;21.79;27.03
54540;SHT30;40438;52.992;18.604;2023-05-10T12:19:04;21.62;26.21
54540;SHT30;40438;52.992;18.604;2023-05-10T12:21:30;21.82;27.01
54540;SHT30;40438;52.992;18.604;2023-05-10T12:23:59;21.99;26.10
54540;SHT30;40438;52.992;18.604;2023-05-10T12:26:28;21.83;26.25
54540;SHT30;40438;52.992;18.604;2023-05-10T12:28:54;22.10;26.69
54540;SHT30;40438;52.992;18.604;2023-05-10T12:31:20;21.96;26.43
54540;SHT30;40438;52.992;18.604;2023-05-10T12:33:46;22.03;26.46
54540;SHT30;40438;52.992;18.604;2023-05-10T12:36:12;21.83;26.30
54540;SHT30;40438;52.992;18.604;2023-05-10T12:38:40;21.88;26.71
54540;SHT30;40438;52.992;18.604;2023-05-10T12:41:07;22.21;26.76
54540;SHT30;40438;52.992;18.604;2023-05-10T12:43:35;22.41;26.18
54540;SHT30;40438;52.992;18.604;2023-05-10T12:46:06;22.50;26.73
54540;SHT30;40438;52.992;18.604;2023-05-10T12:48:32;22.69;25.82
54540;SHT30;40438;52.992;18.604;2023-05-10T12:50:57;22.89;25.63
54540;SHT30;40438;52.992;18.604;2023-05-10T12:53:24;22.87;24.96
54540;SHT30;40438;52.992;18.604;2023-05-10T12:55:50;23.02;25.42
54540;SHT30;40438;52.992;18.604;2023-05-10T12:58:16;23.11;25.18
54540;SHT30;40438;52.992;18.604;2023-05-10T13:00:43;23.19;25.19
54540;SHT30;40438;52.992;18.604;2023-05-10T13:03:09;23.19;24.89
54540;SHT30;40438;52.992;18.604;2023-05-10T13:05:35;23.09;25.45
54540;SHT30;40438;52.992;18.604;2023-05-10T13:08:00;22.85;25.27
54540;SHT30;40438;52.992;18.604;2023-05-10T13:10:27;22.84;25.53
54540;SHT30;40438;52.992;18.604;2023-05-10T13:12:53;22.98;25.32
54540;SHT30;40438;52.992;18.604;2023-05-10T13:15:19;22.92;25.54
54540;SHT30;40438;52.992;18.604;2023-05-10T13:17:46;23.18;25.18
54540;SHT30;40438;52.992;18.604;2023-05-10T13:20:12;23.00;25.00
54540;SHT30;40438;52.992;18.604;2023-05-10T13:22:37;23.11;25.56
54540;SHT30;40438;52.992;18.604;2023-05-10T13:25:04;23.39;25.24
54540;SHT30;40438;52.992;18.604;2023-05-10T13:27:30;23.33;24.88
54540;SHT30;40438;52.992;18.604;2023-05-10T13:29:55;23.19;24.10
54540;SHT30;40438;52.992;18.604;2023-05-10T13:32:21;22.84;24.01
54540;SHT30;40438;52.992;18.604;2023-05-10T13:34:48;22.75;24.65
54540;SHT30;40438;52.992;18.604;2023-05-10T13:37:14;22.65;24.70
54540;SHT30;40438;52.992;18.604;2023-05-10T13:39:40;22.64;24.79
54540;SHT30;40438;52.992;18.604;2023-05-10T13:42:06;22.67;24.44
54540;SHT30;40438;52.992;18.604;2023-05-10T13:44:31;22.96;25.18
54540;SHT30;40438;52.992;18.604;2023-05-10T13:46:57;22.77;24.65
54540;SHT30;40438;52.992;18.604;2023-05-10T13:49:23;22.81;24.62
54540;SHT30;40438;52.992;18.604;2023-05-10T13:51:50;22.61;24.63
54540;SHT30;40438;52.992;18.604;2023-05-10T13:54:16;22.88;25.27
54540;SHT30;40438;52.992;18.604;2023-05-10T13:56:42;23.26;24.95
54540;SHT30;40438;52.992;18.604;2023-05-10T13:59:08;23.56;24.63
54540;SHT30;40438;52.992;18.604;2023-05-10T14:01:33;23.58;24.41
54540;SHT30;40438;52.992;18.604;2023-05-10T14:03:59;23.74;24.49
54540;SHT30;40438;52.992;18.604;2023-05-10T14:06:25;23.40;24.08
54540;SHT30;40438;52.992;18.604;2023-05-10T14:08:52;23.02;24.37
54540;SHT30;40438;52.992;18.604;2023-05-10T14:11:18;23.09;24.32
54540;SHT30;40438;52.992;18.604;2023-05-10T14:13:44;22.87;24.02
54540;SHT30;40438;52.992;18.604;2023-05-10T14:16:10;22.61;24.38
54540;SHT30;40438;52.992;18.604;2023-05-10T14:18:35;22.57;24.21
54540;SHT30;40438;52.992;18.604;2023-05-10T14:21:02;22.72;24.24
54540;SHT30;40438;52.992;18.604;2023-05-10T14:23:28;22.95;24.54
54540;SHT30;40438;52.992;18.604;2023-05-10T14:25:55;23.29;24.14
54540;SHT30;40438;52.992;18.604;2023-05-10T14:28:21;23.74;24.01
54540;SHT30;40438;52.992;18.604;2023-05-10T14:30:47;23.90;23.47
54540;SHT30;40438;52.992;18.604;2023-05-10T14:33:13;23.87;23.67
54540;SHT30;40438;52.992;18.604;2023-05-10T14:35:39;23.80;23.65
54540;SHT30;40438;52.992;18.604;2023-05-10T14:38:05;23.83;23.53
54540;SHT30;40438;52.992;18.604;2023-05-10T14:40:31;23.97;23.53
54540;SHT30;40438;52.992;18.604;2023-05-10T14:42:58;23.80;23.55
54540;SHT30;40438;52.992;18.604;2023-05-10T14:45:23;23.80;23.64
54540;SHT30;40438;52.992;18.604;2023-05-10T14:47:49;23.83;23.44
54540;SHT30;40438;52.992;18.604;2023-05-10T14:50:15;24.04;23.46
54540;SHT30;40438;52.992;18.604;2023-05-10T14:52:41;24.25;23.73
54540;SHT30;40438;52.992;18.604;2023-05-10T14:55:08;24.48;23.60
54540;SHT30;40438;52.992;18.604;2023-05-10T15:00:00;25.06;22.95
54540;SHT30;40438;52.992;18.604;2023-05-10T15:02:26;25.46;22.56
54540;SHT30;40438;52.992;18.604;2023-05-10T15:04:52;24.76;22.79
54540;SHT30;40438;52.992;18.604;2023-05-10T15:07:18;24.52;23.09
54540;SHT30;40438;52.992;18.604;2023-05-10T15:09:44;24.45;23.70
54540;SHT30;40438;52.992;18.604;2023-05-10T15:12:10;24.76;23.48
54540;SHT30;40438;52.992;18.604;2023-05-10T15:14:35;25.08;22.94
54540;SHT30;40438;52.992;18.604;2023-05-10T15:17:03;25.11;22.99
54540;SHT30;40438;52.992;18.604;2023-05-10T15:19:28;24.90;23.18
54540;SHT30;40438;52.992;18.604;2023-05-10T15:21:54;24.91;23.46
54540;SHT30;40438;52.992;18.604;2023-05-10T15:24:20;24.73;23.62
54540;SHT30;40438;52.992;18.604;2023-05-10T15:26:46;25.01;23.67
54540;SHT30;40438;52.992;18.604;2023-05-10T15:29:12;24.57;23.83